Time;durP1;ratioP1;P1;durP2;ratioP2;P2;SDS_P1;SDS_P2;PMS_P1;PMS_P2;Temp;Humidity;BMP_temperature;BMP_pressure;BME280_temperature;BME280_humidity;BME280_pressure;Samples;Min_cycle;Max_cycle;Signal;HPM_P1;HPM_P2
2023/03/19 00:02:50;;;;;;;21.38;15.27;;;9.00;99.90;;;;;;15396586;23;20039;-78
2023/03/19 00:08:52;;;;;;;21.02;12.75;;;8.90;99.90;;;;;;15427508;23;20028;-79
2023/03/19 00:14:54;;;;;;;13.15;6.88;;;8.90;99.90;;;;;;15400588;23;20020;-78
2023/03/19 00:20:55;;;;;;;9.82;4.35;;;9.00;99.90;;;;;;15425361;23;20078;-78
2023/03/19 00:26:57;;;;;;;8.77;3.72;;;9.10;99.90;;;;;;15398607;23;20044;-78
2023/03/19 00:33:00;;;;;;;8.25;3.60;;;9.40;99.90;;;;;;15401282;23;20017;-79
2023/03/19 00:39:03;;;;;;;8.02;3.10;;;9.60;99.90;;;;;;15435568;23;20402;-78
2023/03/19 00:45:05;;;;;;;8.25;3.03;;;9.70;99.90;;;;;;15416736;23;20095;-78
2023/03/19 00:51:09;;;;;;;5.45;2.65;;;9.70;99.90;;;;;;15440082;23;20020;-79
2023/03/19 00:57:11;;;;;;;6.90;2.97;;;9.70;99.90;;;;;;15493132;22;20021;-78
2023/03/19 01:03:20;;;;;;;7.00;2.65;;;9.90;99.90;;;;;;15492438;22;20012;-78
2023/03/19 01:09:21;;;;;;;8.93;2.80;;;9.90;99.90;;;;;;15424147;23;20025;-78
2023/03/19 01:15:24;;;;;;;7.20;2.90;;;9.90;99.90;;;;;;15408042;23;20422;-78
2023/03/19 01:21:29;;;;;;;12.80;8.95;;;9.50;99.90;;;;;;15405500;23;20029;-79
2023/03/19 01:27:31;;;;;;;10.13;7.70;;;9.40;99.90;;;;;;15429655;23;20506;-78
2023/03/19 01:33:33;;;;;;;11.75;9.30;;;9.00;99.90;;;;;;15403362;23;20403;-78
2023/03/19 01:39:35;;;;;;;5.90;2.80;;;8.80;99.90;;;;;;15400652;23;20087;-78
2023/03/19 01:45:40;;;;;;;8.45;3.05;;;8.90;99.90;;;;;;15404861;23;20031;-79
2023/03/19 01:51:44;;;;;;;8.23;2.53;;;9.40;99.90;;;;;;15402924;23;20115;-78
2023/03/19 01:57:47;;;;;;;7.50;2.55;;;9.60;99.90;;;;;;15404803;23;20027;-78
2023/03/19 02:03:52;;;;;;;6.20;2.25;;;9.70;99.90;;;;;;15427793;23;20023;-79
2023/03/19 02:09:54;;;;;;;5.85;2.42;;;9.70;99.90;;;;;;15431194;23;20172;-78
2023/03/19 02:15:57;;;;;;;11.32;2.65;;;9.70;99.90;;;;;;15402589;23;20020;-78
2023/03/19 02:22:00;;;;;;;4.38;2.30;;;9.70;99.90;;;;;;15420016;23;20017;-78
2023/03/19 02:28:02;;;;;;;8.90;2.30;;;9.50;99.90;;;;;;15430945;23;20064;-78
2023/03/19 02:34:22;;;;;;;5.50;2.13;;;9.50;99.90;;;;;;15425730;23;20033;-79
2023/03/19 02:40:31;;;;;;;6.53;2.20;;;9.50;99.90;;;;;;15402375;23;20064;-78
2023/03/19 02:46:34;;;;;;;6.30;2.85;;;9.40;99.90;;;;;;15401661;23;20100;-78
2023/03/19 02:52:37;;;;;;;6.00;2.47;;;9.20;99.90;;;;;;15429762;23;20409;-78
2023/03/19 02:58:39;;;;;;;6.47;2.28;;;9.00;99.90;;;;;;15401771;23;20035;-78
2023/03/19 03:04:41;;;;;;;8.52;2.47;;;8.80;99.90;;;;;;15401475;23;20025;-78
2023/03/19 03:10:43;;;;;;;6.10;2.15;;;8.80;99.90;;;;;;15402726;23;20155;-79
2023/03/19 03:16:45;;;;;;;5.40;2.53;;;9.00;99.90;;;;;;15430263;23;20024;-78
2023/03/19 03:22:47;;;;;;;6.18;3.28;;;9.00;99.90;;;;;;15399564;23;20021;-79
2023/03/19 03:28:49;;;;;;;6.32;3.80;;;9.00;99.90;;;;;;15422271;23;20024;-79
2023/03/19 03:34:51;;;;;;;7.03;4.13;;;8.80;99.90;;;;;;15395972;23;20103;-77
2023/03/19 03:41:03;;;;;;;6.05;3.13;;;8.70;99.90;;;;;;15404273;23;20155;-78
2023/03/19 03:47:05;;;;;;;5.82;2.42;;;8.50;99.90;;;;;;15425238;23;20021;-77
2023/03/19 03:53:14;;;;;;;5.45;2.40;;;8.60;99.90;;;;;;15398996;23;20052;-78
2023/03/19 03:59:21;;;;;;;6.65;1.83;;;9.20;99.90;;;;;;15400999;23;20047;-79
2023/03/19 04:05:23;;;;;;;6.85;1.90;;;9.50;99.90;;;;;;15430866;23;20020;-78
2023/03/19 04:11:28;;;;;;;4.72;1.60;;;9.60;99.90;;;;;;15427703;23;20017;-79
2023/03/19 04:17:30;;;;;;;5.38;1.55;;;9.80;99.90;;;;;;15398855;23;20043;-79
2023/03/19 04:23:32;;;;;;;5.18;2.38;;;9.70;99.90;;;;;;15455082;22;20031;-79
2023/03/19 04:29:34;;;;;;;5.95;1.88;;;9.90;99.90;;;;;;15494224;23;20055;-78
2023/03/19 04:35:36;;;;;;;8.60;2.00;;;9.80;99.90;;;;;;15488620;22;20487;-79
2023/03/19 04:41:38;;;;;;;5.97;2.38;;;9.60;99.90;;;;;;15495909;22;20707;-78
2023/03/19 04:47:43;;;;;;;5.00;2.35;;;9.40;99.90;;;;;;15502462;22;20020;-79
2023/03/19 04:54:08;;;;;;;5.15;2.33;;;9.40;99.90;;;;;;15504440;23;20216;-79
2023/03/19 05:00:27;;;;;;;4.80;2.63;;;9.00;99.90;;;;;;15504577;23;20017;-79
2023/03/19 05:06:31;;;;;;;6.85;4.55;;;8.80;99.90;;;;;;15499719;23;20016;-79
2023/03/19 05:12:34;;;;;;;6.35;4.53;;;8.30;99.90;;;;;;15503189;23;20026;-78
2023/03/19 05:18:36;;;;;;;7.00;4.53;;;7.90;99.90;;;;;;15500090;23;20031;-78
2023/03/19 05:24:41;;;;;;;7.47;4.07;;;7.90;99.90;;;;;;15503257;22;20024;-79
2023/03/19 05:30:43;;;;;;;6.28;4.25;;;7.90;99.90;;;;;;15484215;22;20102;-79
2023/03/19 05:36:45;;;;;;;7.80;4.70;;;7.90;99.90;;;;;;15500351;23;20051;-78
2023/03/19 05:42:50;;;;;;;6.75;4.22;;;7.90;99.90;;;;;;15501411;23;20105;-77
2023/03/19 05:48:52;;;;;;;5.72;3.92;;;7.90;99.90;;;;;;15496851;23;20028;-78
2023/03/19 05:55:04;;;;;;;7.75;3.30;;;7.90;99.90;;;;;;15496335;22;20093;-79
2023/03/19 06:01:23;;;;;;;6.60;2.28;;;8.00;99.90;;;;;;15507050;22;20020;-80
2023/03/19 06:07:25;;;;;;;7.75;2.92;;;8.30;99.90;;;;;;15496258;23;20044;-79
2023/03/19 06:13:31;;;;;;;8.98;2.60;;;8.60;99.90;;;;;;15486490;23;20027;-79
2023/03/19 06:19:33;;;;;;;6.55;2.60;;;9.00;99.90;;;;;;15488125;22;20028;-79
2023/03/19 06:25:36;;;;;;;5.80;2.42;;;9.20;99.90;;;;;;15394406;23;20032;-78
2023/03/19 06:31:40;;;;;;;5.05;2.78;;;9.20;99.90;;;;;;15422406;23;20027;-78
2023/03/19 06:37:42;;;;;;;12.13;2.60;;;9.40;99.90;;;;;;15417942;23;20104;-79
2023/03/19 06:58:40;;;;;;;5.72;2.55;;;10.00;99.90;;;;;;15412618;23;20060;-78
2023/03/19 07:04:43;;;;;;;6.05;2.30;;;10.10;99.90;;;;;;15394659;23;20421;-79
2023/03/19 07:10:45;;;;;;;8.98;3.08;;;10.30;99.90;;;;;;15420866;23;20060;-78
2023/03/19 07:16:47;;;;;;;8.50;2.78;;;10.50;99.90;;;;;;15401241;23;20107;-78
2023/03/19 07:22:50;;;;;;;5.75;2.58;;;10.80;99.90;;;;;;15393329;23;20075;-79
2023/03/19 07:28:52;;;;;;;4.97;2.25;;;11.00;99.90;;;;;;15391863;23;20111;-77
2023/03/19 07:34:55;;;;;;;6.28;2.60;;;11.40;99.90;;;;;;15412379;23;20017;-78
2023/03/19 07:40:56;;;;;;;9.52;2.40;;;12.00;99.90;;;;;;15404847;23;20463;-78
2023/03/19 07:47:03;;;;;;;5.75;2.10;;;12.50;99.90;;;;;;15424160;23;20087;-78
2023/03/19 07:53:05;;;;;;;6.75;2.40;;;12.60;99.90;;;;;;15422833;23;20110;-78
2023/03/19 07:59:07;;;;;;;6.38;2.42;;;12.50;99.90;;;;;;15410641;23;20064;-78
2023/03/19 08:05:09;;;;;;;5.60;1.98;;;12.70;99.90;;;;;;15422750;23;20056;-79
2023/03/19 08:11:11;;;;;;;4.88;2.00;;;13.00;99.90;;;;;;15412845;23;20347;-79
2023/03/19 08:17:14;;;;;;;6.15;2.10;;;13.10;99.90;;;;;;15420390;23;20447;-79
2023/03/19 08:23:15;;;;;;;3.70;1.63;;;13.20;99.90;;;;;;15416568;23;20126;-79
2023/03/19 08:29:17;;;;;;;6.00;1.90;;;13.40;99.90;;;;;;15388777;23;20561;-78
2023/03/19 08:35:20;;;;;;;5.82;2.10;;;13.40;99.90;;;;;;15386588;23;20076;-78
2023/03/19 08:41:24;;;;;;;4.65;1.83;;;13.20;99.90;;;;;;15422570;23;20032;-78
2023/03/19 08:47:26;;;;;;;4.68;1.83;;;13.40;99.90;;;;;;15423393;23;20462;-79
2023/03/19 08:53:30;;;;;;;7.18;2.20;;;13.40;99.90;;;;;;15417591;23;20037;-78
2023/03/19 08:59:32;;;;;;;3.88;2.30;;;13.40;99.90;;;;;;15390920;23;20024;-80
2023/03/19 09:05:35;;;;;;;4.30;2.17;;;13.50;99.90;;;;;;15393085;23;20118;-79
2023/03/19 09:11:37;;;;;;;4.88;2.50;;;13.60;99.90;;;;;;15393060;23;20043;-78
2023/03/19 09:17:39;;;;;;;4.57;2.70;;;13.60;99.90;;;;;;15398106;23;20051;-79
2023/03/19 09:23:41;;;;;;;9.38;3.13;;;13.40;99.90;;;;;;15446564;22;20035;-78
2023/03/19 09:29:42;;;;;;;6.10;2.65;;;13.80;99.90;;;;;;15493833;23;20024;-78
2023/03/19 09:35:51;;;;;;;5.47;2.58;;;14.20;99.90;;;;;;15479079;23;20492;-78
2023/03/19 09:42:04;;;;;;;6.13;2.70;;;14.30;99.90;;;;;;15496880;22;20038;-78
2023/03/19 09:48:13;;;;;;;4.47;2.55;;;14.00;99.90;;;;;;15501396;23;20518;-79
2023/03/19 09:54:26;;;;;;;5.57;2.42;;;13.80;99.90;;;;;;15488874;22;20024;-79
2023/03/19 10:00:32;;;;;;;5.22;2.95;;;14.20;99.90;;;;;;15496217;23;20020;-80
2023/03/19 10:06:39;;;;;;;5.82;3.05;;;14.60;99.90;;;;;;15485598;22;20055;-78
2023/03/19 10:12:59;;;;;;;6.47;3.25;;;14.90;99.90;;;;;;15500761;22;20523;-79
2023/03/19 10:19:04;;;;;;;4.68;2.85;;;14.80;99.90;;;;;;15496529;22;20047;-79
2023/03/19 10:25:12;;;;;;;6.35;3.55;;;14.90;99.90;;;;;;15488755;23;20538;-78
2023/03/19 10:31:29;;;;;;;6.65;3.97;;;14.80;99.90;;;;;;15489645;23;20103;-78
2023/03/19 10:37:34;;;;;;;5.85;3.00;;;14.70;99.90;;;;;;15497216;23;20024;-78
2023/03/19 10:43:38;;;;;;;7.70;3.50;;;14.60;99.90;;;;;;15498427;22;20020;-78
2023/03/19 10:49:41;;;;;;;7.28;3.70;;;14.50;99.90;;;;;;15488204;23;20020;-79
2023/03/19 10:55:52;;;;;;;6.85;3.53;;;14.50;99.90;;;;;;15498077;22;20157;-79
2023/03/19 11:02:02;;;;;;;6.00;3.47;;;14.50;99.90;;;;;;15494746;23;20112;-77
2023/03/19 11:08:14;;;;;;;7.25;3.80;;;14.90;99.90;;;;;;15499893;22;20365;-78
2023/03/19 11:14:38;;;;;;;10.25;5.28;;;15.20;99.90;;;;;;15496413;23;20027;-78
2023/03/19 11:20:41;;;;;;;7.40;5.57;;;15.40;99.90;;;;;;15477655;22;20025;-78
2023/03/19 11:26:52;;;;;;;4.55;3.42;;;15.10;99.90;;;;;;15419739;23;20099;-77
2023/03/19 11:33:11;;;;;;;4.20;3.47;;;14.80;99.90;;;;;;15392684;23;20023;-77
2023/03/19 11:39:22;;;;;;;6.15;3.75;;;14.60;99.90;;;;;;15396549;23;20025;-78
2023/03/19 11:45:44;;;;;;;5.18;3.35;;;14.70;99.90;;;;;;15391522;23;20033;-79
2023/03/19 11:52:01;;;;;;;8.80;5.78;;;14.50;99.90;;;;;;15387306;23;20471;-78
2023/03/19 11:58:28;;;;;;;10.10;6.88;;;14.20;99.90;;;;;;15420797;23;20028;-78
2023/03/19 12:05:07;;;;;;;6.70;3.50;;;14.20;99.90;;;;;;15423055;23;20048;-79
2023/03/19 12:11:16;;;;;;;4.45;3.15;;;14.10;99.90;;;;;;15362472;23;20031;-78
2023/03/19 12:17:33;;;;;;;5.40;3.13;;;14.20;99.90;;;;;;15398638;23;20091;-78
2023/03/19 12:23:57;;;;;;;6.47;3.30;;;14.10;99.90;;;;;;15449267;22;20392;-77
2023/03/19 12:30:17;;;;;;;6.15;3.80;;;14.10;99.90;;;;;;15493653;23;20020;-77
2023/03/19 12:36:24;;;;;;;131.68;44.60;;;14.40;99.90;;;;;;15494852;23;20012;-77
2023/03/19 12:42:31;;;;;;;5.40;3.65;;;14.90;99.90;;;;;;15488850;22;20024;-78
2023/03/19 12:49:13;;;;;;;4.13;3.03;;;14.90;99.90;;;;;;15500027;23;20139;-77
2023/03/19 12:55:14;;;;;;;3.80;2.60;;;14.90;99.90;;;;;;15476806;23;20072;-77
2023/03/19 13:01:24;;;;;;;3.80;3.05;;;15.00;99.90;;;;;;15492261;23;20055;-77
2023/03/19 13:07:42;;;;;;;6.03;2.90;;;14.80;99.90;;;;;;15496801;23;20501;-79
2023/03/19 13:13:50;;;;;;;7.85;3.60;;;14.90;99.90;;;;;;15490120;22;20027;-78
2023/03/19 13:19:55;;;;;;;4.22;2.80;;;15.10;99.90;;;;;;15499476;22;20029;-78
2023/03/19 13:25:59;;;;;;;5.97;3.72;;;14.90;99.90;;;;;;15402475;23;20024;-78
2023/03/19 13:32:05;;;;;;;4.72;3.25;;;14.60;99.90;;;;;;15394757;23;20021;-78
2023/03/19 13:38:21;;;;;;;5.53;3.30;;;14.70;99.90;;;;;;15420461;23;20024;-78
2023/03/19 13:44:32;;;;;;;5.70;3.30;;;15.00;99.90;;;;;;15392003;23;20400;-78
2023/03/19 13:50:54;;;;;;;4.35;3.42;;;15.50;99.90;;;;;;15427730;23;20032;-78
2023/03/19 13:57:06;;;;;;;5.55;3.60;;;15.40;99.90;;;;;;15400094;23;20017;-77
2023/03/19 14:03:25;;;;;;;5.13;3.75;;;15.80;99.90;;;;;;15397611;23;20020;-77
2023/03/19 14:09:36;;;;;;;6.10;4.50;;;16.10;99.90;;;;;;15394080;23;20028;-77
2023/03/19 14:15:46;;;;;;;5.88;4.07;;;15.10;99.90;;;;;;15394823;23;20075;-77
2023/03/19 14:21:51;;;;;;;8.50;4.85;;;15.10;99.90;;;;;;15398654;23;20032;-79
2023/03/19 14:27:59;;;;;;;5.43;3.78;;;15.10;99.90;;;;;;15415968;23;20024;-78
2023/03/19 14:34:15;;;;;;;4.75;3.60;;;15.30;99.90;;;;;;15428668;23;20071;-78
2023/03/19 14:40:24;;;;;;;4.82;4.03;;;14.90;99.90;;;;;;15429334;23;20020;-77
2023/03/19 14:46:43;;;;;;;7.20;4.85;;;14.70;99.90;;;;;;15399441;23;20028;-78
2023/03/19 14:53:07;;;;;;;9.05;6.25;;;14.70;99.90;;;;;;15399484;23;20074;-78
2023/03/19 14:59:12;;;;;;;12.18;6.53;;;15.10;99.90;;;;;;15421722;23;20016;-78
2023/03/19 15:05:31;;;;;;;12.88;7.13;;;15.10;99.90;;;;;;15429024;23;20055;-77
2023/03/19 15:11:52;;;;;;;11.82;6.28;;;15.00;99.90;;;;;;15399806;23;20029;-78
2023/03/19 15:18:01;;;;;;;8.95;5.72;;;14.90;99.90;;;;;;15403269;23;20518;-78
2023/03/19 15:24:12;;;;;;;9.20;5.95;;;14.90;99.90;;;;;;15466625;23;20118;-79
2023/03/19 15:30:23;;;;;;;8.25;5.32;;;14.70;99.90;;;;;;15500880;23;20401;-79
2023/03/19 15:36:32;;;;;;;8.82;5.63;;;14.80;99.90;;;;;;15488316;22;20361;-78
2023/03/19 15:42:34;;;;;;;7.85;5.32;;;14.60;99.90;;;;;;15483658;23;20186;-78
2023/03/19 15:49:11;;;;;;;8.45;5.38;;;14.90;99.90;;;;;;15487769;22;20028;-78
2023/03/19 15:55:15;;;;;;;8.45;5.22;;;14.90;99.90;;;;;;15485781;22;20119;-78
2023/03/19 16:01:18;;;;;;;9.73;6.03;;;14.80;99.90;;;;;;15482984;23;20051;-78
2023/03/19 16:07:27;;;;;;;8.40;5.70;;;14.70;99.90;;;;;;15472396;23;20362;-79
2023/03/19 16:13:36;;;;;;;8.05;4.90;;;14.40;99.90;;;;;;15483791;22;20020;-78
2023/03/19 16:19:54;;;;;;;7.35;4.93;;;13.90;99.90;;;;;;15478794;22;20164;-78
2023/03/19 16:26:01;;;;;;;6.25;4.20;;;13.30;99.90;;;;;;15381440;23;20028;-78
2023/03/19 16:32:28;;;;;;;7.30;5.05;;;12.90;99.90;;;;;;15399975;23;20032;-78
2023/03/19 16:38:58;;;;;;;12.00;5.75;;;12.70;99.90;;;;;;15405614;23;20016;-80
2023/03/19 16:45:19;;;;;;;15.45;5.70;;;12.20;99.90;;;;;;15395047;23;20023;-80
2023/03/19 16:51:21;;;;;;;12.38;7.28;;;11.90;99.90;;;;;;15392288;23;20104;-80
2023/03/19 16:57:23;;;;;;;11.93;7.35;;;11.50;99.90;;;;;;15392267;23;20099;-79
2023/03/19 17:03:26;;;;;;;13.45;7.57;;;11.50;99.90;;;;;;15412517;23;20031;-79
2023/03/19 17:09:27;;;;;;;11.13;7.75;;;11.50;99.90;;;;;;15418207;23;20107;-79
2023/03/19 17:15:36;;;;;;;11.48;8.18;;;11.40;99.90;;;;;;15424082;23;20028;-79
2023/03/19 17:21:38;;;;;;;14.35;8.88;;;11.40;99.90;;;;;;15395397;23;20071;-79
2023/03/19 17:27:40;;;;;;;11.50;8.73;;;11.20;99.90;;;;;;15374261;23;20153;-79
2023/03/19 17:33:42;;;;;;;12.95;9.32;;;11.20;99.90;;;;;;15392322;23;20118;-80
2023/03/19 17:39:44;;;;;;;13.18;8.50;;;11.10;99.90;;;;;;15399104;23;20521;-79
2023/03/19 17:45:48;;;;;;;13.23;9.50;;;11.00;99.90;;;;;;15424701;23;20044;-79
2023/03/19 17:51:50;;;;;;;13.05;8.93;;;11.00;99.90;;;;;;15394279;23;20146;-78
2023/03/19 17:57:53;;;;;;;13.43;9.13;;;10.90;99.90;;;;;;15392712;23;20020;-78
2023/03/19 18:03:56;;;;;;;14.52;8.48;;;10.80;99.90;;;;;;15398476;23;20024;-78
2023/03/19 18:09:58;;;;;;;9.95;7.82;;;10.70;99.90;;;;;;15391259;23;20021;-78
2023/03/19 18:16:02;;;;;;;8.35;6.70;;;10.60;99.90;;;;;;15426749;23;20489;-78
2023/03/19 18:22:13;;;;;;;9.55;6.95;;;10.50;99.90;;;;;;15421444;23;20025;-79
2023/03/19 18:28:15;;;;;;;9.32;6.45;;;10.40;99.90;;;;;;15407561;23;20031;-79
2023/03/19 18:34:17;;;;;;;10.13;6.20;;;10.40;99.90;;;;;;15401927;23;20025;-78
2023/03/19 18:40:23;;;;;;;8.98;6.50;;;10.40;99.90;;;;;;15401943;23;20359;-78
2023/03/19 18:46:30;;;;;;;10.48;7.10;;;10.50;99.90;;;;;;15389080;23;20028;-78
2023/03/19 18:52:32;;;;;;;9.80;7.28;;;10.40;99.90;;;;;;15396930;23;20020;-78
2023/03/19 18:58:36;;;;;;;13.98;8.00;;;10.40;99.90;;;;;;15401154;23;20024;-78
2023/03/19 19:04:38;;;;;;;13.27;9.00;;;10.50;99.90;;;;;;15395952;23;20108;-77
2023/03/19 19:10:44;;;;;;;12.80;9.43;;;10.50;99.90;;;;;;15399797;23;20025;-78
2023/03/19 19:16:46;;;;;;;13.05;9.20;;;10.60;99.90;;;;;;15403697;23;20477;-78
2023/03/19 19:22:50;;;;;;;14.15;9.25;;;10.60;99.90;;;;;;15425189;23;20034;-78
2023/03/19 19:28:56;;;;;;;14.97;9.60;;;10.70;99.90;;;;;;15425013;23;20106;-78
2023/03/19 19:34:58;;;;;;;13.65;9.65;;;10.70;99.90;;;;;;15424967;23;20096;-79
2023/03/19 19:41:00;;;;;;;14.20;10.38;;;10.80;99.90;;;;;;15398310;23;20052;-78
2023/03/19 19:47:10;;;;;;;15.23;10.27;;;10.70;99.90;;;;;;15414281;23;20543;-78
2023/03/19 19:53:14;;;;;;;14.93;10.23;;;10.80;99.90;;;;;;15431054;23;20528;-77
2023/03/19 19:59:21;;;;;;;16.20;11.23;;;10.70;99.90;;;;;;15431924;23;20396;-77
2023/03/19 20:05:29;;;;;;;19.98;12.40;;;10.70;99.90;;;;;;15418005;23;20024;-78
2023/03/19 20:11:31;;;;;;;17.45;12.00;;;10.70;99.90;;;;;;15453022;23;20008;-78
2023/03/19 20:17:33;;;;;;;19.27;12.65;;;10.80;99.90;;;;;;15488534;22;20013;-77
2023/03/19 20:23:35;;;;;;;19.40;12.68;;;10.80;99.90;;;;;;15540617;22;20028;-78
2023/03/19 20:29:38;;;;;;;21.35;13.57;;;10.80;99.90;;;;;;15516275;23;20016;-78
2023/03/19 20:35:41;;;;;;;20.92;14.35;;;10.80;99.90;;;;;;15504310;22;20450;-77
2023/03/19 20:41:44;;;;;;;22.63;14.45;;;10.80;99.90;;;;;;15498294;23;20023;-78
2023/03/19 20:47:47;;;;;;;19.77;14.13;;;10.80;99.90;;;;;;15522991;22;20038;-79
2023/03/19 20:53:50;;;;;;;20.92;15.27;;;10.80;99.90;;;;;;15494756;22;20393;-78
2023/03/19 20:59:52;;;;;;;19.57;14.07;;;10.70;99.90;;;;;;15498076;23;20016;-78
2023/03/19 21:06:00;;;;;;;21.90;13.73;;;10.80;99.90;;;;;;15500506;23;20107;-78
2023/03/19 21:12:08;;;;;;;22.52;14.65;;;10.80;99.90;;;;;;15500199;22;20086;-77
2023/03/19 21:18:10;;;;;;;20.23;13.88;;;10.80;99.90;;;;;;15500864;22;20108;-78
2023/03/19 21:24:19;;;;;;;20.33;12.52;;;11.00;99.90;;;;;;15494736;22;20028;-78
2023/03/19 21:30:21;;;;;;;20.20;12.70;;;11.00;99.90;;;;;;15495667;23;20052;-78
2023/03/19 21:36:23;;;;;;;18.27;12.77;;;11.00;99.90;;;;;;15498313;23;20024;-78
2023/03/19 21:42:26;;;;;;;23.00;14.73;;;10.80;99.90;;;;;;15505955;22;20019;-79
2023/03/19 21:48:29;;;;;;;24.27;15.65;;;10.80;99.90;;;;;;15500814;22;20016;-78
2023/03/19 21:54:31;;;;;;;27.42;15.95;;;10.70;99.90;;;;;;15501955;22;20024;-78
2023/03/19 22:00:33;;;;;;;28.40;16.17;;;10.60;99.90;;;;;;15503171;23;20130;-77
2023/03/19 22:06:35;;;;;;;31.55;16.75;;;10.50;99.90;;;;;;15490944;23;20020;-77
2023/03/19 22:12:43;;;;;;;29.17;16.40;;;10.40;99.90;;;;;;15497126;22;20020;-78
2023/03/19 22:18:46;;;;;;;33.25;17.50;;;10.50;99.90;;;;;;15506518;23;20024;-78
2023/03/19 22:24:48;;;;;;;30.92;16.88;;;10.50;99.90;;;;;;15501929;22;20024;-79
2023/03/19 22:30:50;;;;;;;31.42;17.17;;;10.50;99.90;;;;;;15502782;22;20031;-78
2023/03/19 22:36:53;;;;;;;36.47;19.25;;;10.30;99.90;;;;;;15498558;22;20039;-78
2023/03/19 22:42:55;;;;;;;33.95;18.02;;;10.20;99.90;;;;;;15497670;23;20449;-78
2023/03/19 22:48:57;;;;;;;34.58;18.45;;;10.10;99.90;;;;;;15496906;22;20024;-79
2023/03/19 22:54:59;;;;;;;36.80;18.98;;;10.10;99.90;;;;;;15501481;23;20020;-79
2023/03/19 23:01:01;;;;;;;34.55;18.40;;;10.00;99.90;;;;;;15498700;22;20072;-78
2023/03/19 23:07:03;;;;;;;38.47;18.45;;;9.90;99.90;;;;;;15499945;23;20031;-79
2023/03/19 23:13:04;;;;;;;34.60;17.95;;;9.80;99.90;;;;;;15500828;22;20103;-79
2023/03/19 23:19:30;;;;;;;37.83;18.65;;;9.60;99.90;;;;;;15501160;22;20095;-79
2023/03/19 23:25:32;;;;;;;37.17;17.40;;;9.40;99.90;;;;;;15498710;23;20024;-79
2023/03/19 23:31:35;;;;;;;37.92;19.33;;;9.20;99.90;;;;;;15500277;22;20056;-79
2023/03/19 23:37:38;;;;;;;39.85;19.85;;;9.10;99.90;;;;;;15497321;23;20019;-78
2023/03/19 23:43:40;;;;;;;40.53;19.35;;;9.00;99.90;;;;;;15520172;22;20032;-78
2023/03/19 23:49:42;;;;;;;39.90;18.88;;;9.00;99.90;;;;;;15500126;23;20069;-79
2023/03/19 23:55:45;;;;;;;42.75;19.65;;;8.90;99.90;;;;;;15496643;22;20098;-78
